San Angelo Regional Mathis Field San Angelo US
ICAO: KSJT
IATA: SJT
Category: Medium
Scheduled Services: Yes

Elevation: 1919 ft
TransAlt. 18000 ft.

Airport Communications:
APP/DEP:125.35
ATIS:128.45
CTAF:118.3
GND:121.9
RDO:122.25
TWR:118.3
UNICOM:122.95

KSJT Zoom In..

If you have problems with the map follow the link
https://www.worldairports.se/pages/airport.php?
ICAO=KSJT

Runways:

(A) RW 03 length 5939 ft width 150 ft
ILS 109.70 / hdg 34

(B) RW 09 length 4402 ft width 75 ft
---- / hdg 88

(C) RW 18 length 8049 ft width 150 ft
---- / hdg 178

(D) RW 21 length 5939 ft width 150 ft
---- / hdg 214

(E) RW 27 length 4402 ft width 75 ft
---- / hdg 268

(F) RW 36 length 8049 ft width 150 ft
---- / hdg 358

Location; KSJT
Day. 11 / Time. 13.51 Zulu
* Altimeter: 30.43
* Temperature: 06° c. 42.8°f.
* Wind from: 000° Speed 00 kn.
Dewpoint: 04° c.
Visibility: 10 Statute Miles.
Clouds: Overcast 1300 ft.

KSJT 111351Z 00000KT 10SM OVC013 06/04 A3043 RMK AO2 SLP314 T00610044


Wind - Calm.

 
 
jpsmedia worldairports.se 2019   terms of use